Аэропорт: Богашево. Томск

ICAO: UNTT

METAR:
2020-06-01 01:30:00
UNTT 010130Z 26003MPS 9999 FEW041CB 12/07 Q1007 R21/190055 NOSIG RMK QFE740
METAR:
2020-05-31 22:58:00
TAF UNTT 312258Z 0100/0109 31003G08MPS 9999 SCT020CB TEMPO 0100/0103 26003G08MPS